createdAt,value
2018-07-16T00:00:14.610Z,56.28
2018-07-16T00:02:42.953Z,56.56
2018-07-16T00:05:11.434Z,56.45
2018-07-16T00:07:39.751Z,57.13
2018-07-16T00:10:08.079Z,57.67
2018-07-16T00:12:36.360Z,57.44
2018-07-16T00:15:04.775Z,57.10
2018-07-16T00:17:33.269Z,57.37
2018-07-16T00:20:01.693Z,57.02
2018-07-16T00:22:29.977Z,57.06
2018-07-16T00:24:58.150Z,58.05
2018-07-16T00:27:26.406Z,58.08
2018-07-16T00:29:54.734Z,58.16
2018-07-16T00:32:23.077Z,58.44
2018-07-16T00:34:51.364Z,57.83
2018-07-16T00:37:19.608Z,57.96
2018-07-16T00:39:47.902Z,57.14
2018-07-16T00:42:16.218Z,57.36
2018-07-16T00:44:44.456Z,56.34
2018-07-16T00:47:12.285Z,56.10
2018-07-16T00:49:40.725Z,56.12
2018-07-16T00:52:09.077Z,55.40
2018-07-16T00:54:37.354Z,55.37
2018-07-16T00:57:05.875Z,55.33
2018-07-16T00:59:34.309Z,54.52
2018-07-16T01:02:02.703Z,55.58
2018-07-16T01:04:31.005Z,56.75
2018-07-16T01:06:59.346Z,57.04
2018-07-16T01:09:27.613Z,56.83
2018-07-16T01:11:55.932Z,56.55
2018-07-16T01:14:24.156Z,56.20
2018-07-16T01:16:52.650Z,56.05
2018-07-16T01:19:21.035Z,56.63
2018-07-16T01:21:49.547Z,56.37
2018-07-16T01:24:17.680Z,55.98
2018-07-16T01:26:46.067Z,56.43
2018-07-16T01:29:14.477Z,55.92
2018-07-16T01:31:42.812Z,56.54
2018-07-16T01:34:11.086Z,55.97
2018-07-16T01:36:39.421Z,55.82
2018-07-16T01:39:07.861Z,55.80
2018-07-16T01:41:36.025Z,55.77
2018-07-16T01:44:04.327Z,55.59
2018-07-16T01:46:32.466Z,55.83
2018-07-16T01:49:00.504Z,56.04
2018-07-16T01:51:28.746Z,56.80
2018-07-16T01:53:56.861Z,57.64
2018-07-16T01:56:24.935Z,58.59
2018-07-16T01:58:53.373Z,58.60
2018-07-16T02:01:21.817Z,58.44
2018-07-16T02:03:50.232Z,58.78
2018-07-16T02:06:18.475Z,58.56
2018-07-16T02:08:46.738Z,58.04
2018-07-16T02:11:15.174Z,58.65
2018-07-16T02:13:43.490Z,58.32
2018-07-16T02:16:11.873Z,57.94
2018-07-16T02:18:40.149Z,58.13
2018-07-16T02:21:08.321Z,57.44
2018-07-16T02:23:36.742Z,57.45
2018-07-16T02:26:05.018Z,59.23
2018-07-16T02:28:33.354Z,60.76
2018-07-16T02:31:01.567Z,62.67
2018-07-16T02:33:29.904Z,62.51
2018-07-16T02:35:58.086Z,62.59
2018-07-16T02:38:26.396Z,63.27
2018-07-16T02:40:54.631Z,62.73
2018-07-16T02:43:22.909Z,61.63
2018-07-16T02:45:51.316Z,61.13
2018-07-16T02:48:19.548Z,61.14
2018-07-16T02:50:47.390Z,60.54
2018-07-16T02:53:15.606Z,60.53
2018-07-16T02:55:44.115Z,60.21
2018-07-16T02:58:11.961Z,58.68
2018-07-16T03:00:40.218Z,58.26
2018-07-16T03:03:08.532Z,57.11
2018-07-16T03:05:36.875Z,57.55
2018-07-16T03:08:05.255Z,57.03
2018-07-16T03:10:33.474Z,57.04
2018-07-16T03:13:01.709Z,56.95
2018-07-16T03:15:29.970Z,56.68
2018-07-16T03:17:58.339Z,57.33
2018-07-16T03:20:26.769Z,56.88
2018-07-16T03:22:55.110Z,56.81
2018-07-16T03:25:23.382Z,56.83
2018-07-16T03:27:52.325Z,57.47
2018-07-16T03:30:20.521Z,57.49
2018-07-16T03:32:48.821Z,57.46
2018-07-16T03:35:17.143Z,57.35
2018-07-16T03:37:45.509Z,57.79
2018-07-16T03:40:13.853Z,58.06
2018-07-16T03:42:42.372Z,58.39
2018-07-16T03:45:10.816Z,57.67
2018-07-16T03:47:39.080Z,57.59
2018-07-16T03:50:07.460Z,57.79
2018-07-16T03:52:35.754Z,57.08
2018-07-16T03:55:04.116Z,57.67
2018-07-16T03:57:32.294Z,57.78
2018-07-16T04:00:00.565Z,57.67
2018-07-16T04:02:29.081Z,58.43
2018-07-16T04:04:57.437Z,57.05
2018-07-16T04:07:25.714Z,57.46
2018-07-16T04:09:54.086Z,57.32
2018-07-16T04:12:22.470Z,56.70
2018-07-16T04:14:50.751Z,57.14
2018-07-16T04:17:19.303Z,57.13
2018-07-16T04:19:47.585Z,56.20
2018-07-16T04:22:15.875Z,57.04
2018-07-16T04:24:44.056Z,56.58
2018-07-16T04:27:12.413Z,55.80
2018-07-16T04:29:40.701Z,55.92
2018-07-16T04:32:08.983Z,57.02
2018-07-16T04:34:37.254Z,55.64
2018-07-16T04:37:05.079Z,56.10
2018-07-16T04:39:33.280Z,55.82
2018-07-16T04:42:01.449Z,56.41
2018-07-16T04:44:29.318Z,55.54
2018-07-16T04:46:57.594Z,55.69
2018-07-16T04:49:25.766Z,55.26
2018-07-16T04:51:53.801Z,55.31
2018-07-16T04:54:22.017Z,55.32
2018-07-16T04:56:50.191Z,55.40
2018-07-16T04:59:18.136Z,55.34
2018-07-16T05:01:46.425Z,55.89
2018-07-16T05:04:14.710Z,55.87
2018-07-16T05:06:42.729Z,55.17
2018-07-16T05:09:10.923Z,55.78
2018-07-16T05:11:39.125Z,55.42
2018-07-16T05:14:07.403Z,55.65
2018-07-16T05:16:35.669Z,55.56
2018-07-16T05:19:04.050Z,55.71
2018-07-16T05:21:32.329Z,54.96
2018-07-16T05:24:00.632Z,54.96
2018-07-16T05:26:28.872Z,54.71
2018-07-16T05:28:57.253Z,54.66
2018-07-16T05:31:25.633Z,54.42
2018-07-16T05:33:53.905Z,54.60
2018-07-16T05:36:22.190Z,53.83
2018-07-16T05:38:50.672Z,54.84
2018-07-16T05:41:18.938Z,54.67
2018-07-16T05:43:47.210Z,54.43
2018-07-16T05:46:15.598Z,54.36
2018-07-16T05:48:43.873Z,54.24
2018-07-16T05:51:12.141Z,54.85
2018-07-16T05:53:39.973Z,55.46
2018-07-16T05:56:08.181Z,55.22
2018-07-16T05:58:36.444Z,54.85
2018-07-16T06:01:04.737Z,54.92
2018-07-16T06:03:33.006Z,54.45
2018-07-16T06:06:01.605Z,54.11
2018-07-16T06:08:29.878Z,54.12
2018-07-16T06:10:58.233Z,53.20
2018-07-16T06:13:26.526Z,53.56
2018-07-16T06:15:54.805Z,53.80
2018-07-16T06:18:23.075Z,54.06
2018-07-16T06:20:51.461Z,53.68
2018-07-16T06:23:19.730Z,53.46
2018-07-16T06:25:48.114Z,53.87
2018-07-16T06:28:16.486Z,53.25
2018-07-16T06:30:44.853Z,53.82
2018-07-16T06:33:13.146Z,54.39
2018-07-16T06:35:41.418Z,54.31
2018-07-16T06:38:09.886Z,53.18
2018-07-16T06:40:38.496Z,53.75
2018-07-16T06:43:06.749Z,53.64
2018-07-16T06:45:35.027Z,53.05
2018-07-16T06:48:03.294Z,53.07
2018-07-16T06:50:32.435Z,52.22
2018-07-16T06:53:00.814Z,52.43
2018-07-16T06:55:29.059Z,52.31
2018-07-16T06:57:57.421Z,53.45
2018-07-16T07:00:25.660Z,52.34
2018-07-16T07:02:53.474Z,53.11
2018-07-16T07:05:21.741Z,53.26
2018-07-16T07:07:49.906Z,53.81
2018-07-16T07:10:18.100Z,53.69
2018-07-16T07:12:46.474Z,53.61
2018-07-16T07:15:14.937Z,53.12
2018-07-16T07:17:43.360Z,53.05
2018-07-16T07:20:11.627Z,51.76
2018-07-16T07:22:39.982Z,52.25
2018-07-16T07:25:08.039Z,52.04
2018-07-16T07:27:36.519Z,51.26
2018-07-16T07:30:05.001Z,51.06
2018-07-16T07:32:33.277Z,52.13
2018-07-16T07:35:01.831Z,51.78
2018-07-16T07:37:30.038Z,50.89
2018-07-16T07:39:58.418Z,50.94
2018-07-16T07:42:26.794Z,48.97
2018-07-16T07:44:55.325Z,46.87
2018-07-16T07:47:23.450Z,48.44
2018-07-16T07:49:51.825Z,48.11
2018-07-16T07:52:20.097Z,46.20
2018-07-16T07:54:48.549Z,48.73
2018-07-16T07:57:16.751Z,47.70
2018-07-16T07:59:44.934Z,46.91
2018-07-16T08:02:13.306Z,47.31
2018-07-16T08:04:41.682Z,46.75
2018-07-16T08:07:10.779Z,45.30
2018-07-16T08:09:39.163Z,45.71
2018-07-16T08:12:09.030Z,45.88
2018-07-16T08:14:37.450Z,45.95
2018-07-16T08:17:05.906Z,45.78
2018-07-16T08:19:34.317Z,45.01
2018-07-16T08:22:02.758Z,44.54
2018-07-16T08:24:31.373Z,44.49
2018-07-16T08:26:59.846Z,44.83
2018-07-16T08:29:28.126Z,45.24
2018-07-16T08:31:56.506Z,44.98
2018-07-16T08:34:24.765Z,44.44
2018-07-16T08:36:53.046Z,44.38
2018-07-16T08:39:21.340Z,43.95
2018-07-16T08:41:49.610Z,42.57
2018-07-16T08:44:17.999Z,43.43
2018-07-16T08:46:46.358Z,42.94
2018-07-16T08:49:14.622Z,43.72
2018-07-16T08:51:42.785Z,44.55
2018-07-16T08:54:11.085Z,42.38
2018-07-16T08:56:39.378Z,43.58
2018-07-16T08:59:07.893Z,43.63
2018-07-16T09:01:36.014Z,43.50
2018-07-16T09:04:04.388Z,44.77
2018-07-16T09:06:32.770Z,43.43
2018-07-16T09:09:01.147Z,43.46
2018-07-16T09:11:29.626Z,42.79
2018-07-16T09:13:57.896Z,42.23
2018-07-16T09:16:26.277Z,42.14
2018-07-16T09:18:54.546Z,41.62
2018-07-16T09:21:22.836Z,42.20
2018-07-16T09:23:51.098Z,41.87
2018-07-16T09:26:19.420Z,42.09
2018-07-16T09:28:47.841Z,42.56
2018-07-16T09:31:16.048Z,42.11
2018-07-16T09:33:44.316Z,41.64
2018-07-16T09:36:12.677Z,41.96
2018-07-16T09:38:41.057Z,41.44
2018-07-16T09:41:09.162Z,44.48
2018-07-16T09:43:37.429Z,40.50
2018-07-16T09:46:05.806Z,40.51
2018-07-16T09:48:33.648Z,41.18
2018-07-16T09:51:01.930Z,40.71
2018-07-16T09:53:29.758Z,41.23
2018-07-16T09:55:57.978Z,40.84
2018-07-16T09:58:26.242Z,41.61
2018-07-16T10:00:59.783Z,40.90
2018-07-16T10:03:28.018Z,40.70
2018-07-16T10:05:56.398Z,40.70
2018-07-16T10:08:24.735Z,42.13
2018-07-16T10:10:52.938Z,40.31
2018-07-16T10:13:21.214Z,40.47
2018-07-16T10:15:49.512Z,40.47
2018-07-16T10:18:17.762Z,41.23
2018-07-16T10:20:46.041Z,39.00
2018-07-16T10:23:14.326Z,39.85
2018-07-16T10:25:42.839Z,44.52
2018-07-16T10:28:11.333Z,39.98
2018-07-16T10:30:39.594Z,40.02
2018-07-16T10:33:07.847Z,39.86
2018-07-16T10:35:36.113Z,41.41
2018-07-16T10:38:04.491Z,40.46
2018-07-16T10:40:32.894Z,39.22
2018-07-16T10:43:00.758Z,39.92
2018-07-16T10:45:29.002Z,40.86
2018-07-16T10:47:57.406Z,42.13
2018-07-16T10:50:25.767Z,40.73
2018-07-16T10:52:54.042Z,41.34
2018-07-16T10:55:22.489Z,40.05
2018-07-16T10:57:50.704Z,38.77
2018-07-16T11:00:19.057Z,37.74
2018-07-16T11:02:47.366Z,39.68
2018-07-16T11:05:15.662Z,36.93
2018-07-16T11:07:43.993Z,37.66
2018-07-16T11:10:12.281Z,37.30
2018-07-16T11:12:40.554Z,38.43
2018-07-16T11:15:08.910Z,37.87
2018-07-16T11:17:37.202Z,38.85
2018-07-16T11:20:07.437Z,38.66
2018-07-16T11:22:35.806Z,39.09
2018-07-16T11:25:04.221Z,39.59
2018-07-16T11:27:32.549Z,39.48
2018-07-16T11:30:00.795Z,33.98
2018-07-16T11:32:28.997Z,35.73
2018-07-16T11:34:57.173Z,35.54
2018-07-16T11:37:25.559Z,36.05
2018-07-16T11:39:53.934Z,36.12
2018-07-16T11:42:22.303Z,34.82
2018-07-16T11:44:50.690Z,34.88
2018-07-16T11:47:19.084Z,36.16
2018-07-16T11:49:47.342Z,35.05
2018-07-16T11:52:15.889Z,36.02
2018-07-16T11:54:44.306Z,35.58
2018-07-16T11:57:12.579Z,34.37
2018-07-16T11:59:40.891Z,33.78
2018-07-16T12:02:09.024Z,34.61
2018-07-16T12:04:37.200Z,35.12
2018-07-16T12:07:05.103Z,34.65
2018-07-16T12:09:33.334Z,34.54
2018-07-16T12:12:01.620Z,35.35
2018-07-16T12:14:29.678Z,34.67
2018-07-16T12:16:58.073Z,33.29
2018-07-16T12:19:26.242Z,33.67
2018-07-16T12:21:54.930Z,35.24
2018-07-16T12:24:23.314Z,33.37
2018-07-16T12:26:51.681Z,34.53
2018-07-16T12:29:19.960Z,33.29
2018-07-16T12:31:48.234Z,33.18
2018-07-16T12:34:16.504Z,33.88
2018-07-16T12:36:44.781Z,33.68
2018-07-16T12:39:12.979Z,33.00
2018-07-16T12:41:41.249Z,32.02
2018-07-16T12:44:09.593Z,32.51
2018-07-16T12:46:37.569Z,31.78
2018-07-16T12:49:05.950Z,32.12
2018-07-16T12:51:34.133Z,36.21
2018-07-16T12:54:02.273Z,32.63
2018-07-16T12:56:30.690Z,31.92
2018-07-16T12:58:59.042Z,33.18
2018-07-16T13:01:27.537Z,32.10
2018-07-16T13:03:55.822Z,35.61
2018-07-16T13:06:24.091Z,32.54
2018-07-16T13:08:53.453Z,32.83
2018-07-16T13:11:21.753Z,33.30
2018-07-16T13:13:50.450Z,31.86
2018-07-16T13:16:18.933Z,31.46
2018-07-16T13:18:47.215Z,31.69
2018-07-16T13:21:15.593Z,34.82
2018-07-16T13:23:43.960Z,31.14
2018-07-16T13:26:12.442Z,32.53
2018-07-16T13:28:40.718Z,32.06
2018-07-16T13:31:09.087Z,32.00
2018-07-16T13:33:37.361Z,33.29
2018-07-16T13:36:05.657Z,34.20
2018-07-16T13:38:34.031Z,32.62
2018-07-16T13:41:02.301Z,32.69
2018-07-16T13:43:30.783Z,32.32
2018-07-16T13:45:58.947Z,32.34
2018-07-16T13:48:27.331Z,34.44
2018-07-16T13:50:55.506Z,31.86
2018-07-16T13:53:24.090Z,32.78
2018-07-16T13:55:52.353Z,32.25
2018-07-16T13:58:20.638Z,31.25
2018-07-16T14:00:48.802Z,32.02
2018-07-16T14:03:17.094Z,31.45
2018-07-16T14:05:45.453Z,30.87
2018-07-16T14:08:13.735Z,31.68
2018-07-16T14:10:41.908Z,31.93
2018-07-16T14:13:10.180Z,31.01
2018-07-16T14:15:38.558Z,32.11
2018-07-16T14:18:06.507Z,30.71
2018-07-16T14:20:34.892Z,31.51
2018-07-16T14:23:03.385Z,30.65
2018-07-16T14:25:31.229Z,31.79
2018-07-16T14:27:59.637Z,30.38
2018-07-16T14:30:27.802Z,30.33
2018-07-16T14:32:56.290Z,34.30
2018-07-16T14:35:24.458Z,30.08
2018-07-16T14:37:52.833Z,30.14
2018-07-16T14:40:21.126Z,30.05
2018-07-16T14:42:49.490Z,30.11
2018-07-16T14:45:17.670Z,31.55
2018-07-16T14:47:45.943Z,31.11
2018-07-16T14:50:14.293Z,31.95
2018-07-16T14:52:42.481Z,31.51
2018-07-16T14:55:10.762Z,29.50
2018-07-16T14:57:39.254Z,30.48
2018-07-16T15:00:07.517Z,32.50
2018-07-16T15:02:36.014Z,30.33
2018-07-16T15:05:04.374Z,30.12
2018-07-16T15:07:32.553Z,30.67
2018-07-16T15:10:00.827Z,30.75
2018-07-16T15:12:29.212Z,29.97
2018-07-16T15:14:57.486Z,30.72
2018-07-16T15:17:25.662Z,30.15
2018-07-16T15:19:54.073Z,30.07
2018-07-16T15:22:22.274Z,30.75
2018-07-16T15:24:50.511Z,29.35
2018-07-16T15:27:18.907Z,30.53
2018-07-16T15:29:47.214Z,30.50
2018-07-16T15:32:15.497Z,29.33
2018-07-16T15:34:43.690Z,29.88
2018-07-16T15:37:12.077Z,29.04
2018-07-16T15:39:40.342Z,28.90
2018-07-16T15:42:08.214Z,28.77
2018-07-16T15:44:36.501Z,27.18
2018-07-16T15:47:04.952Z,28.00
2018-07-16T15:49:32.804Z,27.59
2018-07-16T15:52:01.130Z,27.61
2018-07-16T15:54:29.474Z,27.78
2018-07-16T15:56:57.750Z,29.15
2018-07-16T15:59:26.193Z,28.05
2018-07-16T16:01:54.402Z,27.88
2018-07-16T16:04:22.690Z,28.02
2018-07-16T16:06:51.060Z,27.75
2018-07-16T16:09:19.429Z,29.33
2018-07-16T16:11:47.743Z,28.52
2018-07-16T16:14:15.990Z,29.49
2018-07-16T16:16:44.361Z,29.19
2018-07-16T16:19:12.670Z,29.96
2018-07-16T16:21:41.153Z,33.97
2018-07-16T16:24:09.426Z,30.35
2018-07-16T16:26:37.872Z,30.30
2018-07-16T16:29:06.350Z,30.49
2018-07-16T16:31:34.775Z,30.87
2018-07-16T16:34:03.246Z,30.52
2018-07-16T16:36:31.567Z,31.09
2018-07-16T16:38:59.910Z,31.40
2018-07-16T16:41:28.142Z,31.87
2018-07-16T16:43:56.521Z,32.97
2018-07-16T16:46:24.829Z,32.89
2018-07-16T16:48:53.078Z,32.51
2018-07-16T16:51:21.354Z,33.39
2018-07-16T16:53:49.721Z,32.82
2018-07-16T16:56:18.102Z,32.60
2018-07-16T16:58:46.557Z,32.30
2018-07-16T17:01:14.767Z,32.99
2018-07-16T17:03:42.944Z,34.20
2018-07-16T17:06:10.842Z,33.84
2018-07-16T17:08:39.277Z,34.09
2018-07-16T17:11:07.748Z,34.09
2018-07-16T17:13:35.597Z,34.03
2018-07-16T17:16:03.892Z,34.05
2018-07-16T17:18:32.393Z,35.17
2018-07-16T17:21:00.337Z,34.89
2018-07-16T17:23:28.613Z,35.30
2018-07-16T17:25:57.032Z,35.67
2018-07-16T17:28:25.170Z,36.18
2018-07-16T17:30:53.658Z,36.74
2018-07-16T17:33:22.069Z,36.95
2018-07-16T17:35:49.901Z,37.27
2018-07-16T17:38:18.178Z,37.00
2018-07-16T17:40:46.471Z,37.60
2018-07-16T17:43:14.726Z,37.82
2018-07-16T17:45:43.179Z,38.46
2018-07-16T17:48:11.421Z,37.95
2018-07-16T17:50:39.652Z,38.04
2018-07-16T17:53:08.042Z,38.71
2018-07-16T17:55:36.542Z,38.95
2018-07-16T17:58:04.894Z,38.69
2018-07-16T18:00:33.281Z,39.11
2018-07-16T18:03:01.603Z,39.48
2018-07-16T18:05:30.020Z,39.37
2018-07-16T18:07:58.445Z,39.75
2018-07-16T18:10:26.714Z,40.97
2018-07-16T18:12:55.049Z,41.07
2018-07-16T18:15:23.325Z,40.73
2018-07-16T18:17:51.611Z,41.71
2018-07-16T18:20:20.081Z,41.03
2018-07-16T18:22:48.358Z,41.61
2018-07-16T18:25:16.870Z,41.48
2018-07-16T18:27:45.090Z,42.20
2018-07-16T18:30:13.424Z,41.66
2018-07-16T18:32:41.697Z,42.74
2018-07-16T18:35:10.137Z,43.37
2018-07-16T18:37:38.412Z,42.42
2018-07-16T18:40:06.809Z,42.60
2018-07-16T18:42:35.074Z,42.85
2018-07-16T18:45:03.105Z,43.39
2018-07-16T18:47:31.321Z,43.17
2018-07-16T18:49:59.693Z,43.53
2018-07-16T18:52:27.754Z,44.14
2018-07-16T18:54:56.038Z,44.45
2018-07-16T18:57:24.313Z,43.95
2018-07-16T18:59:52.627Z,44.58
2018-07-16T19:02:20.982Z,44.89
2018-07-16T19:04:49.254Z,44.31
2018-07-16T19:07:21.257Z,44.47
2018-07-16T19:09:49.666Z,43.52
2018-07-16T19:12:17.974Z,44.06
2018-07-16T19:14:46.330Z,43.33
2018-07-16T19:17:14.718Z,42.01
2018-07-16T19:19:43.089Z,42.48
2018-07-16T19:22:11.417Z,42.04
2018-07-16T19:24:39.656Z,42.91
2018-07-16T19:27:07.904Z,42.30
2018-07-16T19:29:36.353Z,43.12
2018-07-16T19:32:04.668Z,42.80
2018-07-16T19:34:33.054Z,43.00
2018-07-16T19:37:02.061Z,43.34
2018-07-16T19:39:30.331Z,43.35
2018-07-16T19:41:58.710Z,43.23
2018-07-16T19:44:27.095Z,43.83
2018-07-16T19:46:55.346Z,44.34
2018-07-16T19:49:23.677Z,43.79
2018-07-16T19:51:51.905Z,43.99
2018-07-16T19:54:20.191Z,44.33
2018-07-16T19:56:48.609Z,44.38
2018-07-16T19:59:16.937Z,44.87
2018-07-16T20:01:45.413Z,45.16
2018-07-16T20:04:13.804Z,45.21
2018-07-16T20:06:42.174Z,45.12
2018-07-16T20:09:10.032Z,45.77
2018-07-16T20:11:38.450Z,45.54
2018-07-16T20:14:06.803Z,45.96
2018-07-16T20:16:39.553Z,46.48
2018-07-16T20:19:08.047Z,46.88
2018-07-16T20:21:36.468Z,47.23
2018-07-16T20:24:04.541Z,46.93
2018-07-16T20:26:32.981Z,46.76
2018-07-16T20:29:01.258Z,47.29
2018-07-16T20:31:29.549Z,48.30
2018-07-16T20:33:57.844Z,48.50
2018-07-16T20:36:26.071Z,48.66
2018-07-16T20:38:54.472Z,48.96
2018-07-16T20:41:22.923Z,49.15
2018-07-16T20:43:51.358Z,49.81
2018-07-16T20:46:19.699Z,49.30
2018-07-16T20:48:48.182Z,49.27
2018-07-16T20:51:16.481Z,48.59
2018-07-16T20:53:44.833Z,48.35
2018-07-16T20:56:13.105Z,48.65
2018-07-16T20:58:41.635Z,48.60
2018-07-16T21:01:09.774Z,48.84
2018-07-16T21:03:38.137Z,49.76
2018-07-16T21:06:06.442Z,50.01
2018-07-16T21:08:34.894Z,50.88
2018-07-16T21:11:03.180Z,50.66
2018-07-16T21:13:31.512Z,50.75
2018-07-16T21:15:59.821Z,50.60
2018-07-16T21:18:28.106Z,50.38
2018-07-16T21:20:56.618Z,50.31
2018-07-16T21:23:24.725Z,51.18
2018-07-16T21:25:53.030Z,51.60
2018-07-16T21:28:21.440Z,51.44
2018-07-16T21:30:49.894Z,50.55
2018-07-16T21:33:18.175Z,50.64
2018-07-16T21:35:46.485Z,50.21
2018-07-16T21:38:14.827Z,50.71
2018-07-16T21:40:43.208Z,50.65
2018-07-16T21:43:11.610Z,50.89
2018-07-16T21:45:39.733Z,50.89
2018-07-16T21:48:07.822Z,51.48
2018-07-16T21:50:36.258Z,52.03
2018-07-16T21:53:04.663Z,51.90
2018-07-16T21:55:32.535Z,51.62
2018-07-16T21:58:00.794Z,51.86
2018-07-16T22:00:30.870Z,51.46
2018-07-16T22:03:00.036Z,52.14
2018-07-16T22:05:28.721Z,52.08
2018-07-16T22:07:58.004Z,51.80
2018-07-16T22:10:26.454Z,52.73
2018-07-16T22:12:55.533Z,52.74
2018-07-16T22:15:25.393Z,52.84
2018-07-16T22:17:54.457Z,52.43
2018-07-16T22:20:23.730Z,53.57
2018-07-16T22:22:52.113Z,53.47
2018-07-16T22:25:20.073Z,53.39
2018-07-16T22:27:48.412Z,52.76
2018-07-16T22:30:16.825Z,53.23
2018-07-16T22:32:45.165Z,53.00
2018-07-16T22:35:13.537Z,53.58
2018-07-16T22:37:41.876Z,53.05
2018-07-16T22:40:10.195Z,54.94
2018-07-16T22:42:38.573Z,54.86
2018-07-16T22:45:07.705Z,54.55
2018-07-16T22:47:36.050Z,55.49
2018-07-16T22:50:04.529Z,55.66
2018-07-16T22:52:32.943Z,55.67
2018-07-16T22:55:01.191Z,56.15
2018-07-16T22:57:29.468Z,56.08
2018-07-16T22:59:57.777Z,56.73
2018-07-16T23:02:26.117Z,56.71
2018-07-16T23:04:54.496Z,57.52
2018-07-16T23:07:23.006Z,57.67
2018-07-16T23:09:51.262Z,57.09
2018-07-16T23:12:19.627Z,57.48
2018-07-16T23:14:47.830Z,57.19
2018-07-16T23:17:16.386Z,57.34
2018-07-16T23:19:44.654Z,57.14
2018-07-16T23:22:12.965Z,57.66
2018-07-16T23:24:41.305Z,58.27
2018-07-16T23:27:09.576Z,58.61
2018-07-16T23:29:37.995Z,57.95
2018-07-16T23:32:07.157Z,58.25
2018-07-16T23:34:35.423Z,58.18
2018-07-16T23:37:03.948Z,58.08
2018-07-16T23:39:32.181Z,58.79
2018-07-16T23:42:00.358Z,57.95
2018-07-16T23:44:28.646Z,58.76
2018-07-16T23:46:57.018Z,58.86
2018-07-16T23:49:24.990Z,59.11
2018-07-16T23:51:53.278Z,58.55
2018-07-16T23:54:21.538Z,58.87
2018-07-16T23:56:49.734Z,59.05
2018-07-16T23:59:17.982Z,60.28
